createdAt,value
2019-03-18T00:00:17.748Z,6.20
2019-03-18T00:02:48.217Z,6.20
2019-03-18T00:05:17.530Z,6.30
2019-03-18T00:07:46.829Z,6.50
2019-03-18T00:10:16.108Z,6.50
2019-03-18T00:12:45.406Z,6.40
2019-03-18T00:15:14.692Z,6.40
2019-03-18T00:17:43.994Z,6.40
2019-03-18T00:20:13.857Z,6.40
2019-03-18T00:22:43.167Z,6.40
2019-03-18T00:25:13.924Z,6.60
2019-03-18T00:27:43.301Z,6.70
2019-03-18T00:30:20.142Z,6.70
2019-03-18T00:32:49.424Z,6.70
2019-03-18T00:35:18.731Z,6.80
2019-03-18T00:37:48.016Z,6.80
2019-03-18T00:40:18.604Z,6.70
2019-03-18T00:42:47.895Z,6.70
2019-03-18T00:45:17.449Z,6.60
2019-03-18T00:47:46.822Z,6.50
2019-03-18T00:50:16.780Z,6.40
2019-03-18T00:52:46.102Z,6.50
2019-03-18T00:55:15.404Z,6.60
2019-03-18T00:57:44.706Z,6.60
2019-03-18T01:00:17.910Z,6.70
2019-03-18T01:02:49.501Z,6.80
2019-03-18T01:05:19.067Z,6.90
2019-03-18T01:07:48.388Z,6.80
2019-03-18T01:10:20.784Z,6.90
2019-03-18T01:12:50.093Z,6.90
2019-03-18T01:15:27.994Z,6.80
2019-03-18T01:17:50.405Z,6.80
2019-03-18T01:20:19.885Z,6.80
2019-03-18T01:22:49.191Z,6.90
2019-03-18T01:25:18.484Z,6.90
2019-03-18T01:27:47.809Z,6.80
2019-03-18T01:30:17.124Z,6.90
2019-03-18T01:32:46.420Z,6.90
2019-03-18T01:35:15.784Z,7.00
2019-03-18T01:37:45.084Z,7.00
2019-03-18T01:40:14.687Z,7.00
2019-03-18T01:42:43.996Z,7.00
2019-03-18T01:45:13.424Z,7.00
2019-03-18T01:47:42.732Z,7.00
2019-03-18T01:50:14.140Z,7.00
2019-03-18T01:52:43.428Z,6.80
2019-03-18T01:55:12.879Z,6.60
2019-03-18T01:57:42.193Z,6.50
2019-03-18T02:00:13.139Z,6.40
2019-03-18T02:02:42.439Z,6.50
2019-03-18T02:05:11.826Z,6.50
2019-03-18T02:08:00.455Z,6.60
2019-03-18T02:10:29.789Z,6.50
2019-03-18T02:12:59.080Z,6.50
2019-03-18T02:15:28.386Z,6.50
2019-03-18T02:17:57.730Z,6.10
2019-03-18T02:20:27.175Z,6.10
2019-03-18T02:22:56.490Z,6.10
2019-03-18T02:25:25.808Z,6.30
2019-03-18T02:27:55.100Z,6.30
2019-03-18T02:30:24.432Z,6.40
2019-03-18T02:32:53.729Z,6.40
2019-03-18T02:35:23.025Z,6.30
2019-03-18T02:37:52.313Z,6.40
2019-03-18T02:40:21.636Z,6.50
2019-03-18T02:42:51.918Z,6.70
2019-03-18T02:45:24.501Z,6.70
2019-03-18T02:47:52.351Z,6.80
2019-03-18T02:50:21.669Z,6.80
2019-03-18T02:52:50.977Z,6.70
2019-03-18T02:55:20.285Z,6.70
2019-03-18T02:57:49.650Z,6.80
2019-03-18T03:00:19.052Z,6.80
2019-03-18T03:02:48.358Z,6.80
2019-03-18T03:05:17.672Z,6.70
2019-03-18T03:07:46.976Z,6.30
2019-03-18T03:10:16.506Z,6.10
2019-03-18T03:12:45.816Z,6.00
2019-03-18T03:15:15.155Z,5.90
2019-03-18T03:17:44.654Z,6.00
2019-03-18T03:20:14.218Z,6.00
2019-03-18T03:22:43.576Z,6.00
2019-03-18T03:25:12.913Z,6.10
2019-03-18T03:27:42.225Z,6.10
2019-03-18T03:30:15.471Z,6.00
2019-03-18T03:32:45.208Z,6.10
2019-03-18T03:35:14.617Z,6.20
2019-03-18T03:37:44.919Z,6.10
2019-03-18T03:40:14.321Z,6.00
2019-03-18T03:42:43.698Z,6.00
2019-03-18T03:45:14.221Z,6.10
2019-03-18T03:47:43.538Z,6.00
2019-03-18T03:50:14.948Z,5.90
2019-03-18T03:52:44.259Z,5.80
2019-03-18T03:55:14.304Z,5.80
2019-03-18T03:57:43.697Z,5.90
2019-03-18T04:00:16.586Z,5.80
2019-03-18T04:02:47.218Z,5.80
2019-03-18T04:05:16.531Z,5.80
2019-03-18T04:07:45.847Z,5.80
2019-03-18T04:10:15.412Z,5.80
2019-03-18T04:12:44.707Z,5.70
2019-03-18T04:15:15.640Z,5.80
2019-03-18T04:17:45.010Z,5.90
2019-03-18T04:20:18.532Z,6.00
2019-03-18T04:22:47.937Z,5.90
2019-03-18T04:25:17.231Z,6.00
2019-03-18T04:30:43.015Z,5.90
2019-03-18T04:33:12.319Z,6.00
2019-03-18T04:35:41.718Z,6.00
2019-03-18T04:38:11.043Z,6.20
2019-03-18T04:40:40.346Z,6.40
2019-03-18T04:43:09.661Z,6.40
2019-03-18T04:45:41.917Z,6.50
2019-03-18T04:48:09.982Z,6.50
2019-03-18T04:50:39.274Z,6.30
2019-03-18T04:53:08.823Z,6.40
2019-03-18T04:55:38.111Z,6.50
2019-03-18T04:58:07.420Z,6.60
2019-03-18T05:00:36.733Z,6.60
2019-03-18T05:03:06.025Z,6.70
2019-03-18T05:05:35.330Z,6.70
2019-03-18T05:08:04.623Z,6.90
2019-03-18T05:10:33.941Z,6.80
2019-03-18T05:13:03.234Z,6.70
2019-03-18T05:15:32.544Z,6.50
2019-03-18T05:18:01.846Z,6.40
2019-03-18T05:20:31.150Z,6.40
2019-03-18T05:23:00.448Z,6.40
2019-03-18T05:25:29.759Z,6.50
2019-03-18T05:27:59.054Z,6.50
2019-03-18T05:30:28.359Z,6.70
2019-03-18T05:32:57.655Z,6.90
2019-03-18T05:35:26.970Z,6.90
2019-03-18T05:37:57.237Z,6.90
2019-03-18T05:40:26.548Z,6.90
2019-03-18T05:42:55.865Z,6.90
2019-03-18T05:45:25.172Z,7.00
2019-03-18T05:47:54.467Z,7.10
2019-03-18T05:50:23.775Z,7.00
2019-03-18T05:52:53.089Z,7.00
2019-03-18T05:55:22.397Z,7.10
2019-03-18T05:57:51.695Z,7.20
2019-03-18T06:00:21.006Z,7.20
2019-03-18T06:02:50.309Z,7.10
2019-03-18T06:05:19.629Z,7.10
2019-03-18T06:07:48.913Z,6.80
2019-03-18T06:10:18.215Z,6.70
2019-03-18T06:12:47.499Z,6.70
2019-03-18T06:15:16.808Z,6.20
2019-03-18T06:17:52.271Z,5.90
2019-03-18T06:20:17.132Z,5.90
2019-03-18T06:22:46.430Z,5.80
2019-03-18T06:25:15.751Z,5.90
2019-03-18T06:27:45.114Z,6.00
2019-03-18T06:30:17.977Z,6.20
2019-03-18T06:32:47.290Z,6.20
2019-03-18T06:35:16.578Z,6.30
2019-03-18T06:37:45.896Z,6.30
2019-03-18T06:40:15.466Z,6.20
2019-03-18T06:42:44.762Z,6.00
2019-03-18T06:45:14.064Z,5.80
2019-03-18T06:47:43.374Z,5.80
2019-03-18T06:50:13.110Z,5.90
2019-03-18T06:52:43.473Z,6.10
2019-03-18T06:55:14.142Z,6.20
2019-03-18T06:57:43.480Z,6.30
2019-03-18T07:00:14.606Z,6.40
2019-03-18T07:02:43.979Z,6.50
2019-03-18T07:05:13.358Z,6.60
2019-03-18T07:07:42.667Z,6.60
2019-03-18T07:10:13.789Z,6.60
2019-03-18T07:12:43.110Z,6.60
2019-03-18T07:15:12.552Z,6.60
2019-03-18T07:17:41.886Z,6.60
2019-03-18T07:20:12.437Z,6.50
2019-03-18T07:22:41.741Z,6.40
2019-03-18T07:25:11.279Z,6.30
2019-03-18T07:27:40.583Z,6.40
2019-03-18T07:30:11.543Z,6.60
2019-03-18T07:32:40.863Z,6.80
2019-03-18T07:35:10.287Z,6.80
2019-03-18T07:37:40.751Z,6.80
2019-03-18T07:40:14.332Z,6.90
2019-03-18T07:42:43.643Z,7.10
2019-03-18T07:45:15.966Z,7.20
2019-03-18T07:47:46.675Z,7.20
2019-03-18T07:50:16.332Z,7.20
2019-03-18T07:52:45.635Z,7.20
2019-03-18T07:55:14.939Z,7.30
2019-03-18T07:57:44.313Z,7.40
2019-03-18T08:00:16.409Z,7.50
2019-03-18T08:02:45.738Z,7.30
2019-03-18T08:05:15.075Z,7.30
2019-03-18T08:07:44.374Z,7.30
2019-03-18T08:10:16.579Z,7.40
2019-03-18T08:12:45.888Z,7.40
2019-03-18T08:15:15.195Z,7.40
2019-03-18T08:17:44.500Z,7.50
2019-03-18T08:20:14.078Z,7.60
2019-03-18T08:22:43.368Z,7.70
2019-03-18T08:25:12.680Z,7.50
2019-03-18T08:27:41.973Z,7.70
2019-03-18T08:30:14.351Z,8.00
2019-03-18T08:32:43.699Z,7.90
2019-03-18T08:35:13.991Z,7.90
2019-03-18T08:37:43.275Z,8.00
2019-03-18T08:40:12.887Z,8.10
2019-03-18T08:42:43.311Z,8.10
2019-03-18T08:45:15.731Z,8.10
2019-03-18T08:47:45.016Z,8.40
2019-03-18T08:50:14.340Z,8.60
2019-03-18T08:52:43.625Z,8.40
2019-03-18T08:55:13.070Z,8.30
2019-03-18T08:57:42.363Z,8.00
2019-03-18T09:00:15.875Z,8.00
2019-03-18T09:02:45.159Z,8.00
2019-03-18T09:05:14.646Z,7.90
2019-03-18T09:07:44.027Z,8.30
2019-03-18T09:10:15.480Z,8.50
2019-03-18T09:12:44.840Z,8.40
2019-03-18T09:15:14.301Z,8.20
2019-03-18T09:17:44.653Z,8.10
2019-03-18T09:20:15.116Z,8.00
2019-03-18T09:22:44.383Z,8.00
2019-03-18T09:25:13.770Z,7.70
2019-03-18T09:27:43.104Z,7.70
2019-03-18T09:30:17.038Z,7.30
2019-03-18T09:32:46.324Z,7.40
2019-03-18T09:35:15.638Z,7.90
2019-03-18T09:37:44.946Z,8.00
2019-03-18T09:40:15.200Z,8.20
2019-03-18T09:42:44.573Z,8.70
2019-03-18T09:45:19.874Z,8.90
2019-03-18T09:47:49.170Z,8.70
2019-03-18T09:50:18.615Z,8.80
2019-03-18T09:52:47.922Z,9.00
2019-03-18T09:55:17.227Z,9.10
2019-03-18T09:57:46.528Z,8.90
2019-03-18T10:00:19.675Z,9.30
2019-03-18T10:02:49.051Z,9.00
2019-03-18T10:05:18.421Z,9.10
2019-03-18T10:07:47.716Z,9.70
2019-03-18T10:10:17.095Z,9.90
2019-03-18T10:12:46.392Z,9.90
2019-03-18T10:15:22.080Z,13.60
2019-03-18T10:17:51.378Z,14.70
2019-03-18T10:20:20.690Z,13.30
2019-03-18T10:22:50.004Z,12.20
2019-03-18T10:25:19.384Z,11.30
2019-03-18T10:27:48.678Z,11.20
2019-03-18T10:30:17.991Z,11.30
2019-03-18T10:32:47.375Z,11.30
2019-03-18T10:35:16.687Z,11.00
2019-03-18T10:37:46.012Z,10.80
2019-03-18T10:40:15.392Z,10.50
2019-03-18T10:42:44.695Z,10.20
2019-03-18T10:45:14.633Z,10.00
2019-03-18T10:47:43.943Z,9.50
2019-03-18T10:50:14.572Z,9.60
2019-03-18T10:52:44.868Z,9.80
2019-03-18T10:55:14.172Z,10.40
2019-03-18T10:57:43.563Z,12.70
2019-03-18T11:00:14.694Z,13.90
2019-03-18T11:02:45.271Z,13.90
2019-03-18T11:05:15.107Z,13.10
2019-03-18T11:07:44.414Z,12.70
2019-03-18T11:10:16.976Z,12.30
2019-03-18T11:12:47.254Z,11.90
2019-03-18T11:15:18.204Z,11.50
2019-03-18T11:17:47.522Z,11.20
2019-03-18T11:20:17.372Z,10.80
2019-03-18T11:22:46.678Z,10.30
2019-03-18T11:25:16.815Z,10.10
2019-03-18T11:27:46.141Z,10.00
2019-03-18T11:30:19.217Z,10.10
2019-03-18T11:32:48.522Z,10.70
2019-03-18T11:35:17.896Z,11.30
2019-03-18T11:37:47.287Z,11.90
2019-03-18T11:40:17.831Z,12.10
2019-03-18T11:42:47.227Z,12.20
2019-03-18T11:45:16.963Z,12.10
2019-03-18T11:47:47.354Z,11.60
2019-03-18T11:50:17.888Z,11.70
2019-03-18T11:52:47.197Z,11.80
2019-03-18T11:55:22.100Z,11.90
2019-03-18T11:57:51.488Z,12.00
2019-03-18T12:00:22.043Z,13.10
2019-03-18T12:02:52.318Z,13.60
2019-03-18T12:05:25.214Z,12.80
2019-03-18T12:07:54.560Z,11.60
2019-03-18T12:10:25.482Z,11.00
2019-03-18T12:12:54.876Z,10.90
2019-03-18T12:15:27.608Z,11.10
2019-03-18T12:17:57.002Z,11.30
2019-03-18T12:20:26.295Z,11.00
2019-03-18T12:22:55.686Z,11.40
2019-03-18T12:25:25.072Z,11.30
2019-03-18T12:27:54.391Z,10.80
2019-03-18T12:30:25.794Z,9.80
2019-03-18T12:32:55.116Z,8.90
2019-03-18T12:35:24.506Z,8.90
2019-03-18T12:37:53.842Z,8.70
2019-03-18T12:40:23.215Z,9.30
2019-03-18T12:42:52.519Z,10.00
2019-03-18T12:45:22.439Z,10.40
2019-03-18T12:47:51.783Z,11.10
2019-03-18T12:50:38.652Z,12.10
2019-03-18T12:52:54.210Z,13.60
2019-03-18T12:55:23.511Z,14.20
2019-03-18T12:57:52.826Z,15.20
2019-03-18T13:00:31.732Z,15.10
2019-03-18T13:03:01.105Z,15.60
2019-03-18T13:05:30.588Z,15.90
2019-03-18T13:08:00.133Z,16.20
2019-03-18T13:10:29.458Z,15.80
2019-03-18T13:12:58.767Z,15.30
2019-03-18T13:15:28.163Z,15.40
2019-03-18T13:17:57.457Z,15.20
2019-03-18T13:20:26.784Z,15.10
2019-03-18T13:22:56.089Z,15.20
2019-03-18T13:25:25.397Z,15.10
2019-03-18T13:27:54.682Z,14.50
2019-03-18T13:30:24.746Z,14.70
2019-03-18T13:32:54.043Z,15.60
2019-03-18T13:35:23.353Z,15.80
2019-03-18T13:37:52.663Z,16.20
2019-03-18T13:40:21.993Z,16.00
2019-03-18T13:42:51.364Z,15.80
2019-03-18T13:45:21.731Z,15.80
2019-03-18T13:47:51.105Z,15.60
2019-03-18T13:50:21.456Z,16.20
2019-03-18T13:52:50.755Z,16.30
2019-03-18T13:55:20.123Z,15.80
2019-03-18T13:57:49.429Z,15.40
2019-03-18T14:00:22.050Z,14.20
2019-03-18T14:02:51.351Z,13.80
2019-03-18T14:05:20.815Z,13.60
2019-03-18T14:07:59.826Z,13.40
2019-03-18T14:10:22.567Z,12.80
2019-03-18T14:12:51.884Z,12.10
2019-03-18T14:15:22.442Z,11.30
2019-03-18T14:17:51.754Z,10.50
2019-03-18T14:20:22.806Z,9.60
2019-03-18T14:22:52.129Z,9.30
2019-03-18T14:25:22.411Z,9.30
2019-03-18T14:27:51.775Z,9.70
2019-03-18T14:30:23.102Z,10.50
2019-03-18T14:32:52.449Z,11.30
2019-03-18T14:35:22.178Z,12.00
2019-03-18T14:37:51.688Z,12.40
2019-03-18T14:40:22.152Z,12.90
2019-03-18T14:42:51.466Z,13.00
2019-03-18T14:45:21.836Z,13.00
2019-03-18T14:47:51.273Z,13.40
2019-03-18T14:50:20.708Z,13.70
2019-03-18T14:52:50.022Z,14.10
2019-03-18T14:55:19.463Z,14.40
2019-03-18T14:57:48.774Z,14.10
2019-03-18T15:00:20.092Z,14.10
2019-03-18T15:02:49.407Z,13.60
2019-03-18T15:05:18.882Z,13.70
2019-03-18T15:07:48.204Z,13.60
2019-03-18T15:10:19.151Z,13.70
2019-03-18T15:12:48.461Z,13.60
2019-03-18T15:15:18.608Z,14.10
2019-03-18T15:17:47.910Z,14.30
2019-03-18T15:20:21.866Z,14.30
2019-03-18T15:22:51.198Z,14.20
2019-03-18T15:25:22.430Z,13.60
2019-03-18T15:27:51.748Z,13.50
2019-03-18T15:30:21.181Z,13.10
2019-03-18T15:32:50.481Z,12.70
2019-03-18T15:35:19.790Z,12.60
2019-03-18T15:37:49.106Z,12.50
2019-03-18T15:40:19.664Z,12.30
2019-03-18T15:42:48.988Z,12.30
2019-03-18T15:45:19.529Z,12.30
2019-03-18T15:47:48.839Z,12.10
2019-03-18T15:50:19.079Z,11.90
2019-03-18T15:52:48.382Z,10.10
2019-03-18T15:55:17.675Z,9.10
2019-03-18T15:57:47.012Z,8.80
2019-03-18T16:00:20.390Z,8.90
2019-03-18T16:02:49.741Z,9.10
2019-03-18T16:05:19.026Z,9.10
2019-03-18T16:07:48.386Z,9.20
2019-03-18T16:10:21.082Z,9.50
2019-03-18T16:12:50.491Z,9.40
2019-03-18T16:15:19.860Z,9.40
2019-03-18T16:17:50.244Z,9.30
2019-03-18T16:20:24.554Z,9.30
2019-03-18T16:22:53.969Z,9.50
2019-03-18T16:25:23.414Z,9.70
2019-03-18T16:27:52.714Z,9.90
2019-03-18T16:30:22.589Z,10.00
2019-03-18T16:32:52.096Z,10.30
2019-03-18T16:35:21.716Z,10.30
2019-03-18T16:37:51.094Z,10.20
2019-03-18T16:40:21.537Z,10.30
2019-03-18T16:42:50.861Z,10.40
2019-03-18T16:45:20.792Z,10.30
2019-03-18T16:47:50.090Z,10.20
2019-03-18T16:50:20.929Z,10.20
2019-03-18T16:52:50.575Z,10.20
2019-03-18T16:55:20.026Z,10.00
2019-03-18T16:57:49.343Z,9.90
2019-03-18T17:00:26.562Z,9.60
2019-03-18T17:02:56.292Z,9.40
2019-03-18T17:05:25.606Z,9.20
2019-03-18T17:07:55.292Z,9.10
2019-03-18T17:10:24.809Z,8.70
2019-03-18T17:12:54.196Z,8.70
2019-03-18T17:15:23.558Z,8.80
2019-03-18T17:17:52.860Z,8.80
2019-03-18T17:20:23.142Z,8.90
2019-03-18T17:22:52.443Z,8.90
2019-03-18T17:25:27.185Z,9.00
2019-03-18T17:27:57.519Z,8.60
2019-03-18T17:30:27.075Z,8.30
2019-03-18T17:32:56.505Z,8.30
2019-03-18T17:35:25.811Z,8.40
2019-03-18T17:37:55.432Z,8.70
2019-03-18T17:40:24.829Z,8.90
2019-03-18T17:42:54.183Z,8.90
2019-03-18T17:45:23.638Z,8.70
2019-03-18T17:47:53.022Z,8.80
2019-03-18T17:50:29.601Z,8.90
2019-03-18T17:53:03.061Z,9.00
2019-03-18T17:55:30.015Z,8.90
2019-03-18T17:58:00.837Z,8.90
2019-03-18T18:00:32.719Z,8.90
2019-03-18T18:03:02.295Z,8.90
2019-03-18T18:05:31.604Z,8.90
2019-03-18T18:08:20.318Z,8.80
2019-03-18T18:10:49.659Z,8.70
2019-03-18T18:13:19.004Z,8.60
2019-03-18T18:15:48.338Z,8.50
2019-03-18T18:18:17.789Z,8.50
2019-03-18T18:20:47.096Z,8.50
2019-03-18T18:23:16.394Z,8.50
2019-03-18T18:25:45.752Z,8.30
2019-03-18T18:28:15.022Z,8.30
2019-03-18T18:30:44.311Z,8.20
2019-03-18T18:33:13.730Z,8.20
2019-03-18T18:35:43.031Z,8.20
2019-03-18T18:38:12.330Z,8.10
2019-03-18T18:40:41.706Z,8.00
2019-03-18T18:43:10.998Z,7.90
2019-03-18T18:45:40.286Z,7.80
2019-03-18T18:48:09.613Z,7.80
2019-03-18T18:50:38.911Z,7.70
2019-03-18T18:53:08.189Z,7.70
2019-03-18T18:55:37.551Z,7.80
2019-03-18T18:58:06.874Z,7.70
2019-03-18T19:00:36.193Z,7.60
2019-03-18T19:03:05.508Z,7.50
2019-03-18T19:05:34.803Z,7.40
2019-03-18T19:08:04.209Z,7.30
2019-03-18T19:10:33.517Z,7.20
2019-03-18T19:13:02.846Z,7.30
2019-03-18T19:15:34.779Z,7.40
2019-03-18T19:18:04.095Z,7.50
2019-03-18T19:20:33.414Z,7.50
2019-03-18T19:23:02.733Z,7.50
2019-03-18T19:25:32.027Z,7.40
2019-03-18T19:28:01.395Z,7.30
2019-03-18T19:30:30.701Z,7.20
2019-03-18T19:33:00.094Z,7.20
2019-03-18T19:35:29.472Z,7.20
2019-03-18T19:37:58.806Z,7.20
2019-03-18T19:40:28.100Z,7.10
2019-03-18T19:42:57.693Z,7.10
2019-03-18T19:45:26.999Z,7.00
2019-03-18T19:47:56.325Z,7.00
2019-03-18T19:50:29.599Z,7.00
2019-03-18T19:52:59.833Z,7.00
2019-03-18T19:55:29.130Z,7.00
2019-03-18T19:57:58.439Z,7.10
2019-03-18T20:00:31.493Z,7.00
2019-03-18T20:03:00.807Z,7.00
2019-03-18T20:05:30.158Z,6.80
2019-03-18T20:07:59.500Z,6.70
2019-03-18T20:10:28.894Z,6.70
2019-03-18T20:12:58.216Z,6.60
2019-03-18T20:15:27.611Z,6.70
2019-03-18T20:17:56.930Z,6.70
2019-03-18T20:20:26.277Z,6.70
2019-03-18T20:22:55.738Z,6.70
2019-03-18T20:25:25.260Z,6.70
2019-03-18T20:27:54.651Z,6.70
2019-03-18T20:30:24.047Z,6.60
2019-03-18T20:32:53.347Z,6.60
2019-03-18T20:35:25.615Z,6.70
2019-03-18T20:37:54.903Z,6.70
2019-03-18T20:40:24.602Z,6.60
2019-03-18T20:42:53.923Z,6.60
2019-03-18T20:45:24.721Z,6.40
2019-03-18T20:47:54.318Z,6.20
2019-03-18T20:50:24.476Z,6.40
2019-03-18T20:52:53.824Z,6.60
2019-03-18T20:55:23.210Z,6.70
2019-03-18T20:57:52.595Z,6.60
2019-03-18T21:00:23.388Z,6.60
2019-03-18T21:02:52.955Z,6.60
2019-03-18T21:05:25.152Z,6.60
2019-03-18T21:07:55.664Z,6.30
2019-03-18T21:10:24.957Z,6.20
2019-03-18T21:12:54.310Z,6.30
2019-03-18T21:15:23.665Z,6.50
2019-03-18T21:17:52.942Z,6.60
2019-03-18T21:20:26.938Z,6.70
2019-03-18T21:22:56.446Z,6.90
2019-03-18T21:25:25.829Z,7.00
2019-03-18T21:27:55.217Z,7.00
2019-03-18T21:30:24.755Z,7.00
2019-03-18T21:32:54.204Z,7.00
2019-03-18T21:35:23.722Z,7.00
2019-03-18T21:37:53.048Z,6.80
2019-03-18T21:40:22.336Z,6.60
2019-03-18T21:42:51.706Z,6.60
2019-03-18T21:45:23.629Z,6.50
2019-03-18T21:47:53.571Z,6.20
2019-03-18T21:50:22.920Z,6.30
2019-03-18T21:52:52.365Z,6.40
2019-03-18T21:55:21.750Z,6.50
2019-03-18T21:57:51.148Z,6.70
2019-03-18T22:00:21.703Z,6.70
2019-03-18T22:02:51.462Z,6.70
2019-03-18T22:05:20.739Z,6.70
2019-03-18T22:07:50.138Z,6.70
2019-03-18T22:10:20.414Z,6.70
2019-03-18T22:12:50.150Z,6.70
2019-03-18T22:15:19.442Z,6.60
2019-03-18T22:17:48.735Z,6.60
2019-03-18T22:20:21.908Z,6.50
2019-03-18T22:22:51.215Z,6.40
2019-03-18T22:25:20.718Z,6.40
2019-03-18T22:27:50.150Z,6.30
2019-03-18T22:30:19.858Z,6.30
2019-03-18T22:32:49.215Z,6.30
2019-03-18T22:35:18.580Z,6.10
2019-03-18T22:37:47.891Z,6.10
2019-03-18T22:40:17.832Z,6.30
2019-03-18T22:42:47.210Z,6.40
2019-03-18T22:45:17.501Z,6.40
2019-03-18T22:47:46.897Z,6.40
2019-03-18T22:50:17.426Z,6.30
2019-03-18T22:52:47.713Z,6.40
2019-03-18T22:55:17.019Z,6.30
2019-03-18T22:57:46.334Z,6.20
2019-03-18T23:00:25.731Z,6.20
2019-03-18T23:02:56.648Z,6.10
2019-03-18T23:05:26.086Z,6.10
2019-03-18T23:07:55.462Z,6.00
2019-03-18T23:10:24.750Z,6.00
2019-03-18T23:12:54.065Z,6.20
2019-03-18T23:15:23.546Z,6.30
2019-03-18T23:17:52.861Z,6.20
2019-03-18T23:20:22.143Z,6.10
2019-03-18T23:22:51.469Z,5.90
2019-03-18T23:25:21.889Z,5.90
2019-03-18T23:27:51.203Z,5.90
2019-03-18T23:30:20.511Z,6.10
2019-03-18T23:32:50.072Z,6.30
2019-03-18T23:35:19.391Z,6.30
2019-03-18T23:37:48.830Z,6.40
2019-03-18T23:40:18.121Z,6.40
2019-03-18T23:42:47.426Z,6.40
2019-03-18T23:45:16.824Z,6.30
2019-03-18T23:47:46.118Z,6.30
2019-03-18T23:50:16.350Z,6.10
2019-03-18T23:52:46.129Z,6.20
2019-03-18T23:55:19.628Z,6.30
2019-03-18T23:57:46.742Z,6.20
